PWSweather.com
Personal Weather Stations
Station Observations
KCOGRAND2
Redlands, Southcamp Road & Dakota Circle, Grand Junction, CO 81507

Redlands, Southcamp Road & Dakota CircleGrand Junction, CO 81507

Lat: 39.055, Lon: -108.637

Elevation: 4870

Station Type: RadioShack WX200

High Low Average
Temperature 73.0°F22.8°C 50.2°F10.1°C 60.2°F15.7°C
Dew Point 47.5°F8.6°C 25.9°F-3.4°C 37.7°F3.2°C
Winds 25.0 mph 40.2 kmh Calm Calm 5.0 mph S8.0 kmh S
Wind Gusts 41.2 mph66.3 kmh -- 8.0 mph12.9 kmh
Humidity 79% 18% 47%
Pressure 25.16 in852.0 mb 25.04 in848.0 mb -
Precipitation 0.00 in0.0 mm - -
Hour Temp Dew Point Humidity Winds Wind Gusts Pressure Precip Precip Rate Daily Precip Total
12:01 AM 55.2°F12.9°C 46.8°F8.2°C 73% Calm Calm 3.1 mph5.0 kmh 25.13 in851.0 mb 0.00 in0.0 mm 0.00 in0.0 mm 0.00 in0.0 mm
12:06 AM 55.0°F12.8°C 46.6°F8.1°C 73% Calm Calm -- 25.13 in851.0 mb 0.00 in0.0 mm 0.00 in0.0 mm 0.00 in0.0 mm
12:11 AM 54.7°F12.6°C 46.6°F8.1°C 74% Calm Calm 3.6 mph5.8 kmh 25.13 in851.0 mb 0.00 in0.0 mm 0.00 in0.0 mm 0.00 in0.0 mm
12:16 AM 54.5°F12.5°C 46.8°F8.2°C 75% 1.0 mph NNE1.6 kmh NNE 3.6 mph5.8 kmh 25.13 in851.0 mb 0.00 in0.0 mm 0.00 in0.0 mm 0.00 in0.0 mm
12:21 AM 54.1°F12.3°C 47.5°F8.6°C 78% 2.0 mph NNE3.2 kmh NNE 4.9 mph7.9 kmh 25.13 in851.0 mb 0.00 in0.0 mm 0.00 in0.0 mm 0.00 in0.0 mm
12:26 AM 54.0°F12.2°C 47.7°F8.7°C 79% 3.0 mph NNE4.8 kmh NNE 4.5 mph7.2 kmh 25.13 in851.0 mb 0.00 in0.0 mm 0.00 in0.0 mm 0.00 in0.0 mm
12:31 AM 53.8°F12.1°C 47.8°F8.8°C 80% 2.0 mph NNE3.2 kmh NNE 3.6 mph5.8 kmh 25.13 in851.0 mb 0.00 in0.0 mm 0.00 in0.0 mm 0.00 in0.0 mm
12:36 AM 54.0°F12.2°C 48.2°F9.0°C 81% 1.0 mph NNE1.6 kmh NNE 3.1 mph5.0 kmh 25.13 in851.0 mb 0.00 in0.0 mm 0.00 in0.0 mm 0.00 in0.0 mm
12:41 AM 53.6°F12.0°C 47.8°F8.8°C 81% Calm Calm 3.1 mph5.0 kmh 25.13 in851.0 mb 0.00 in0.0 mm 0.00 in0.0 mm 0.00 in0.0 mm
12:46 AM 53.8°F12.1°C 47.8°F8.8°C 80% Calm Calm 3.6 mph5.8 kmh 25.13 in851.0 mb 0.00 in0.0 mm 0.00 in0.0 mm 0.00 in0.0 mm
12:51 AM 54.0°F12.2°C 47.7°F8.7°C 79% 1.0 mph NNE1.6 kmh NNE 3.6 mph5.8 kmh 25.13 in851.0 mb 0.00 in0.0 mm 0.00 in0.0 mm 0.00 in0.0 mm
12:56 AM 54.5°F12.5°C 46.8°F8.2°C 75% 1.0 mph NNE1.6 kmh NNE 3.6 mph5.8 kmh 25.13 in851.0 mb 0.00 in0.0 mm 0.00 in0.0 mm 0.00 in0.0 mm
01:01 AM 54.5°F12.5°C 46.0°F7.8°C 73% Calm Calm 2.7 mph4.3 kmh 25.13 in851.0 mb 0.00 in0.0 mm 0.00 in0.0 mm 0.00 in0.0 mm
01:06 AM 54.5°F12.5°C 46.0°F7.8°C 73% Calm Calm 2.7 mph4.3 kmh 25.13 in851.0 mb 0.00 in0.0 mm 0.00 in0.0 mm 0.00 in0.0 mm
01:11 AM 54.3°F12.4°C 45.5°F7.5°C 72% Calm Calm -- 25.13 in851.0 mb 0.00 in0.0 mm 0.00 in0.0 mm 0.00 in0.0 mm
01:16 AM 54.0°F12.2°C 45.9°F7.7°C 74% Calm Calm 3.6 mph5.8 kmh 25.13 in851.0 mb 0.00 in0.0 mm 0.00 in0.0 mm 0.00 in0.0 mm
01:21 AM 53.6°F12.0°C 45.5°F7.5°C 74% Calm Calm 3.6 mph5.8 kmh 25.13 in851.0 mb 0.00 in0.0 mm 0.00 in0.0 mm 0.00 in0.0 mm
01:26 AM 53.6°F12.0°C 45.5°F7.5°C 74% 1.0 mph NNE1.6 kmh NNE 3.1 mph5.0 kmh 25.13 in851.0 mb 0.00 in0.0 mm 0.00 in0.0 mm 0.00 in0.0 mm
01:31 AM 54.1°F12.3°C 45.7°F7.6°C 73% Calm Calm 3.1 mph5.0 kmh 25.13 in851.0 mb 0.00 in0.0 mm 0.00 in0.0 mm 0.00 in0.0 mm
01:36 AM 54.3°F12.4°C 45.5°F7.5°C 72% Calm Calm 2.7 mph4.3 kmh 25.13 in851.0 mb 0.00 in0.0 mm 0.00 in0.0 mm 0.00 in0.0 mm
01:41 AM 53.8°F12.1°C 45.3°F7.4°C 73% 1.0 mph NNE1.6 kmh NNE 4.9 mph7.9 kmh 25.13 in851.0 mb 0.00 in0.0 mm 0.00 in0.0 mm 0.00 in0.0 mm
01:46 AM 53.6°F12.0°C 45.5°F7.5°C 74% 2.0 mph NNE3.2 kmh NNE 4.0 mph6.4 kmh 25.13 in851.0 mb 0.00 in0.0 mm 0.00 in0.0 mm 0.00 in0.0 mm
01:51 AM 53.2°F11.8°C 45.9°F7.7°C 76% 2.0 mph NNE3.2 kmh NNE 4.0 mph6.4 kmh 25.13 in851.0 mb 0.00 in0.0 mm 0.00 in0.0 mm 0.00 in0.0 mm
01:56 AM 53.1°F11.7°C 46.0°F7.8°C 77% 1.0 mph NNE1.6 kmh NNE 3.1 mph5.0 kmh 25.13 in851.0 mb 0.00 in0.0 mm 0.00 in0.0 mm 0.00 in0.0 mm
02:01 AM 52.7°F11.5°C 46.0°F7.8°C 78% 1.0 mph NNE1.6 kmh NNE 4.5 mph7.2 kmh 25.13 in851.0 mb 0.00 in0.0 mm 0.00 in0.0 mm 0.00 in0.0 mm
02:06 AM 53.2°F11.8°C 46.6°F8.1°C 78% 3.0 mph N4.8 kmh N 7.8 mph12.6 kmh 25.13 in851.0 mb 0.00 in0.0 mm 0.00 in0.0 mm 0.00 in0.0 mm
02:11 AM 53.8°F12.1°C 47.5°F8.6°C 79% 6.0 mph N9.7 kmh N 10.1 mph16.3 kmh 25.13 in851.0 mb 0.00 in0.0 mm 0.00 in0.0 mm 0.00 in0.0 mm
02:16 AM 53.4°F11.9°C 46.8°F8.2°C 78% 6.0 mph N9.7 kmh N 8.3 mph13.4 kmh 25.13 in851.0 mb 0.00 in0.0 mm 0.00 in0.0 mm 0.00 in0.0 mm
02:21 AM 53.4°F11.9°C 46.4°F8.0°C 77% 6.0 mph NNE9.7 kmh NNE 8.3 mph13.4 kmh 25.10 in850.0 mb 0.00 in0.0 mm 0.00 in0.0 mm 0.00 in0.0 mm
02:26 AM 52.5°F11.4°C 45.5°F7.5°C 77% 5.0 mph NNE8.0 kmh NNE 6.7 mph10.8 kmh 25.10 in850.0 mb 0.00 in0.0 mm 0.00 in0.0 mm 0.00 in0.0 mm
02:31 AM 53.4°F11.9°C 46.0°F7.8°C 76% 5.0 mph NNE8.0 kmh NNE 9.6 mph15.4 kmh 25.10 in850.0 mb 0.00 in0.0 mm 0.00 in0.0 mm 0.00 in0.0 mm
02:36 AM 52.9°F11.6°C 45.5°F7.5°C 76% 6.0 mph NNE9.7 kmh NNE 9.2 mph14.8 kmh 25.10 in850.0 mb 0.00 in0.0 mm 0.00 in0.0 mm 0.00 in0.0 mm
02:41 AM 53.1°F11.7°C 45.7°F7.6°C 76% 6.0 mph NNE9.7 kmh NNE 7.8 mph12.6 kmh 25.10 in850.0 mb 0.00 in0.0 mm 0.00 in0.0 mm 0.00 in0.0 mm
02:46 AM 53.2°F11.8°C 45.5°F7.5°C 75% 5.0 mph NNE8.0 kmh NNE 6.9 mph11.1 kmh 25.10 in850.0 mb 0.00 in0.0 mm 0.00 in0.0 mm 0.00 in0.0 mm
02:51 AM 53.2°F11.8°C 45.1°F7.3°C 74% 5.0 mph NNE8.0 kmh NNE 7.4 mph11.9 kmh 25.10 in850.0 mb 0.00 in0.0 mm 0.00 in0.0 mm 0.00 in0.0 mm
02:56 AM 53.2°F11.8°C 45.1°F7.3°C 74% 5.0 mph NNE8.0 kmh NNE 6.9 mph11.1 kmh 25.10 in850.0 mb 0.00 in0.0 mm 0.00 in0.0 mm 0.00 in0.0 mm
03:01 AM 53.1°F11.7°C 45.0°F7.2°C 74% 3.0 mph NNE4.8 kmh NNE 4.0 mph6.4 kmh 25.10 in850.0 mb 0.00 in0.0 mm 0.00 in0.0 mm 0.00 in0.0 mm
03:06 AM 53.1°F11.7°C 45.0°F7.2°C 74% 1.0 mph NNE1.6 kmh NNE 3.6 mph5.8 kmh 25.10 in850.0 mb 0.00 in0.0 mm 0.00 in0.0 mm 0.00 in0.0 mm
03:11 AM 53.1°F11.7°C 45.3°F7.4°C 75% 2.0 mph NNE3.2 kmh NNE 3.6 mph5.8 kmh 25.10 in850.0 mb 0.00 in0.0 mm 0.00 in0.0 mm 0.00 in0.0 mm
03:16 AM 53.4°F11.9°C 45.0°F7.2°C 73% 3.0 mph NNE4.8 kmh NNE 4.5 mph7.2 kmh 25.10 in850.0 mb 0.00 in0.0 mm 0.00 in0.0 mm 0.00 in0.0 mm
03:21 AM 53.4°F11.9°C 45.0°F7.2°C 73% 3.0 mph ENE4.8 kmh ENE 5.8 mph9.3 kmh 25.13 in851.0 mb 0.00 in0.0 mm 0.00 in0.0 mm 0.00 in0.0 mm
03:26 AM 54.0°F12.2°C 45.1°F7.3°C 72% 2.0 mph SE3.2 kmh SE 4.0 mph6.4 kmh 25.13 in851.0 mb 0.00 in0.0 mm 0.00 in0.0 mm 0.00 in0.0 mm
03:31 AM 54.0°F12.2°C 44.8°F7.1°C 71% 1.0 mph SE1.6 kmh SE 4.0 mph6.4 kmh 25.13 in851.0 mb 0.00 in0.0 mm 0.00 in0.0 mm 0.00 in0.0 mm
03:36 AM 54.0°F12.2°C 44.4°F6.9°C 70% 2.0 mph SE3.2 kmh SE 4.9 mph7.9 kmh 25.13 in851.0 mb 0.00 in0.0 mm 0.00 in0.0 mm 0.00 in0.0 mm
03:41 AM 53.6°F12.0°C 44.4°F6.9°C 71% 3.0 mph E4.8 kmh E 6.7 mph10.8 kmh 25.13 in851.0 mb 0.00 in0.0 mm 0.00 in0.0 mm 0.00 in0.0 mm
03:46 AM 53.1°F11.7°C 44.6°F7.0°C 73% 5.0 mph NNE8.0 kmh NNE 7.8 mph12.6 kmh 25.13 in851.0 mb 0.00 in0.0 mm 0.00 in0.0 mm 0.00 in0.0 mm
03:51 AM 52.9°F11.6°C 44.8°F7.1°C 74% 4.0 mph NNE6.4 kmh NNE 5.8 mph9.3 kmh 25.10 in850.0 mb 0.00 in0.0 mm 0.00 in0.0 mm 0.00 in0.0 mm
03:56 AM 52.7°F11.5°C 45.3°F7.4°C 76% 2.0 mph NNE3.2 kmh NNE 3.6 mph5.8 kmh 25.10 in850.0 mb 0.00 in0.0 mm 0.00 in0.0 mm 0.00 in0.0 mm
04:01 AM 52.7°F11.5°C 45.0°F7.2°C 75% 2.0 mph NNE3.2 kmh NNE 4.9 mph7.9 kmh 25.10 in850.0 mb 0.00 in0.0 mm 0.00 in0.0 mm 0.00 in0.0 mm
04:06 AM 53.2°F11.8°C 45.5°F7.5°C 75% 4.0 mph NE6.4 kmh NE 7.4 mph11.9 kmh 25.10 in850.0 mb 0.00 in0.0 mm 0.00 in0.0 mm 0.00 in0.0 mm
04:11 AM 53.6°F12.0°C 45.1°F7.3°C 73% 6.0 mph NNE9.7 kmh NNE 8.7 mph14.0 kmh 25.10 in850.0 mb 0.00 in0.0 mm 0.00 in0.0 mm 0.00 in0.0 mm
04:16 AM 54.1°F12.3°C 45.0°F7.2°C 71% 6.0 mph N9.7 kmh N 7.8 mph12.6 kmh 25.10 in850.0 mb 0.00 in0.0 mm 0.00 in0.0 mm 0.00 in0.0 mm
04:21 AM 54.1°F12.3°C 44.2°F6.8°C 69% 4.0 mph N6.4 kmh N 5.8 mph9.3 kmh 25.13 in851.0 mb 0.00 in0.0 mm 0.00 in0.0 mm 0.00 in0.0 mm
04:26 AM 54.3°F12.4°C 43.2°F6.2°C 66% 4.0 mph NNW6.4 kmh NNW 6.9 mph11.1 kmh 25.13 in851.0 mb 0.00 in0.0 mm 0.00 in0.0 mm 0.00 in0.0 mm
04:31 AM 54.3°F12.4°C 44.1°F6.7°C 68% 5.0 mph NNW8.0 kmh NNW 7.4 mph11.9 kmh 25.13 in851.0 mb 0.00 in0.0 mm 0.00 in0.0 mm 0.00 in0.0 mm
04:36 AM 54.3°F12.4°C 44.1°F6.7°C 68% 5.0 mph N8.0 kmh N 8.7 mph14.0 kmh 25.13 in851.0 mb 0.00 in0.0 mm 0.00 in0.0 mm 0.00 in0.0 mm
04:41 AM 54.1°F12.3°C 43.3°F6.3°C 67% 4.0 mph N6.4 kmh N 5.4 mph8.7 kmh 25.13 in851.0 mb 0.00 in0.0 mm 0.00 in0.0 mm 0.00 in0.0 mm
04:46 AM 53.6°F12.0°C 43.3°F6.3°C 68% 3.0 mph N4.8 kmh N 6.7 mph10.8 kmh 25.13 in851.0 mb 0.00 in0.0 mm 0.00 in0.0 mm 0.00 in0.0 mm
04:51 AM 53.2°F11.8°C 43.3°F6.3°C 69% 3.0 mph N4.8 kmh N 4.0 mph6.4 kmh 25.13 in851.0 mb 0.00 in0.0 mm 0.00 in0.0 mm 0.00 in0.0 mm
04:56 AM 52.9°F11.6°C 43.3°F6.3°C 70% 2.0 mph NNW3.2 kmh NNW 3.6 mph5.8 kmh 25.13 in851.0 mb 0.00 in0.0 mm 0.00 in0.0 mm 0.00 in0.0 mm
05:02 AM 52.7°F11.5°C 43.9°F6.6°C 72% 2.0 mph NNW3.2 kmh NNW 4.0 mph6.4 kmh 25.13 in851.0 mb 0.00 in0.0 mm 0.00 in0.0 mm 0.00 in0.0 mm
05:07 AM 52.2°F11.2°C 43.3°F6.3°C 72% 2.0 mph NNW3.2 kmh NNW 4.5 mph7.2 kmh 25.13 in851.0 mb 0.00 in0.0 mm 0.00 in0.0 mm 0.00 in0.0 mm
05:12 AM 52.0°F11.1°C 43.2°F6.2°C 72% 1.0 mph NNW1.6 kmh NNW 4.0 mph6.4 kmh 25.13 in851.0 mb 0.00 in0.0 mm 0.00 in0.0 mm 0.00 in0.0 mm
05:17 AM 52.0°F11.1°C 43.5°F6.4°C 73% 3.0 mph NNW4.8 kmh NNW 6.7 mph10.8 kmh 25.13 in851.0 mb 0.00 in0.0 mm 0.00 in0.0 mm 0.00 in0.0 mm
05:22 AM 52.3°F11.3°C 44.2°F6.8°C 74% 4.0 mph N6.4 kmh N 5.4 mph8.7 kmh 25.10 in850.0 mb 0.00 in0.0 mm 0.00 in0.0 mm 0.00 in0.0 mm
05:27 AM 51.8°F11.0°C 43.7°F6.5°C 74% 3.0 mph N4.8 kmh N 4.5 mph7.2 kmh 25.10 in850.0 mb 0.00 in0.0 mm 0.00 in0.0 mm 0.00 in0.0 mm
05:32 AM 51.6°F10.9°C 43.9°F6.6°C 75% 2.0 mph N3.2 kmh N 3.6 mph5.8 kmh 25.10 in850.0 mb 0.00 in0.0 mm 0.00 in0.0 mm 0.00 in0.0 mm
05:37 AM 51.6°F10.9°C 44.2°F6.8°C 76% 2.0 mph NNW3.2 kmh NNW 6.7 mph10.8 kmh 25.13 in851.0 mb 0.00 in0.0 mm 0.00 in0.0 mm 0.00 in0.0 mm
05:42 AM 52.0°F11.1°C 45.3°F7.4°C 78% 4.0 mph NW6.4 kmh NW 6.7 mph10.8 kmh 25.13 in851.0 mb 0.00 in0.0 mm 0.00 in0.0 mm 0.00 in0.0 mm
05:47 AM 52.0°F11.1°C 45.3°F7.4°C 78% 4.0 mph NW6.4 kmh NW 5.8 mph9.3 kmh 25.13 in851.0 mb 0.00 in0.0 mm 0.00 in0.0 mm 0.00 in0.0 mm
05:52 AM 52.2°F11.2°C 45.1°F7.3°C 77% 4.0 mph NNW6.4 kmh NNW 6.3 mph10.1 kmh 25.10 in850.0 mb 0.00 in0.0 mm 0.00 in0.0 mm 0.00 in0.0 mm
05:57 AM 52.7°F11.5°C 45.0°F7.2°C 75% 4.0 mph N6.4 kmh N 6.3 mph10.1 kmh 25.10 in850.0 mb 0.00 in0.0 mm 0.00 in0.0 mm 0.00 in0.0 mm
06:02 AM 51.6°F10.9°C 43.9°F6.6°C 75% 4.0 mph NNE6.4 kmh NNE 5.4 mph8.7 kmh 25.10 in850.0 mb 0.00 in0.0 mm 0.00 in0.0 mm 0.00 in0.0 mm
06:07 AM 50.7°F10.4°C 43.5°F6.4°C 76% 2.0 mph NE3.2 kmh NE 4.0 mph6.4 kmh 25.13 in851.0 mb 0.00 in0.0 mm 0.00 in0.0 mm 0.00 in0.0 mm
06:12 AM 50.4°F10.2°C 43.2°F6.2°C 76% Calm Calm 3.1 mph5.0 kmh 25.13 in851.0 mb 0.00 in0.0 mm 0.00 in0.0 mm 0.00 in0.0 mm
06:17 AM 50.2°F10.1°C 43.5°F6.4°C 78% 1.0 mph ENE1.6 kmh ENE 3.1 mph5.0 kmh 25.13 in851.0 mb 0.00 in0.0 mm 0.00 in0.0 mm 0.00 in0.0 mm
06:22 AM 50.5°F10.3°C 44.2°F6.8°C 79% 1.0 mph ENE1.6 kmh ENE 3.6 mph5.8 kmh 25.13 in851.0 mb 0.00 in0.0 mm 0.00 in0.0 mm 0.00 in0.0 mm
06:27 AM 50.7°F10.4°C 44.4°F6.9°C 79% Calm Calm 4.0 mph6.4 kmh 25.13 in851.0 mb 0.00 in0.0 mm 0.00 in0.0 mm 0.00 in0.0 mm
06:32 AM 50.9°F10.5°C 44.2°F6.8°C 78% 1.0 mph NE1.6 kmh NE 4.5 mph7.2 kmh 25.13 in851.0 mb 0.00 in0.0 mm 0.00 in0.0 mm 0.00 in0.0 mm
06:37 AM 51.1°F10.6°C 44.4°F6.9°C 78% 1.0 mph NE1.6 kmh NE -- 25.13 in851.0 mb 0.00 in0.0 mm 0.00 in0.0 mm 0.00 in0.0 mm
06:42 AM 51.1°F10.6°C 44.4°F6.9°C 78% Calm Calm -- 25.13 in851.0 mb 0.00 in0.0 mm 0.00 in0.0 mm 0.00 in0.0 mm
06:47 AM 51.1°F10.6°C 44.1°F6.7°C 77% Calm Calm -- 25.13 in851.0 mb 0.00 in0.0 mm 0.00 in0.0 mm 0.00 in0.0 mm
06:52 AM 51.3°F10.7°C 44.2°F6.8°C 77% Calm Calm -- 25.13 in851.0 mb 0.00 in0.0 mm 0.00 in0.0 mm 0.00 in0.0 mm
06:57 AM 51.6°F10.9°C 44.6°F7.0°C 77% Calm Calm -- 25.13 in851.0 mb 0.00 in0.0 mm 0.00 in0.0 mm 0.00 in0.0 mm
07:02 AM 52.5°F11.4°C 45.5°F7.5°C 77% Calm Calm 4.5 mph7.2 kmh 25.13 in851.0 mb 0.00 in0.0 mm 0.00 in0.0 mm 0.00 in0.0 mm
07:07 AM 53.4°F11.9°C 46.4°F8.0°C 77% 2.0 mph NNE3.2 kmh NNE 4.9 mph7.9 kmh 25.13 in851.0 mb 0.00 in0.0 mm 0.00 in0.0 mm 0.00 in0.0 mm
07:12 AM 54.9°F12.7°C 47.1°F8.4°C 75% 3.0 mph NNE4.8 kmh NNE 4.0 mph6.4 kmh 25.13 in851.0 mb 0.00 in0.0 mm 0.00 in0.0 mm 0.00 in0.0 mm
07:17 AM 55.6°F13.1°C 47.1°F8.4°C 73% 3.0 mph NNE4.8 kmh NNE 4.5 mph7.2 kmh 25.13 in851.0 mb 0.00 in0.0 mm 0.00 in0.0 mm 0.00 in0.0 mm
07:22 AM 56.8°F13.8°C 47.5°F8.6°C 71% 3.0 mph NNE4.8 kmh NNE 4.9 mph7.9 kmh 25.13 in851.0 mb 0.00 in0.0 mm 0.00 in0.0 mm 0.00 in0.0 mm
07:27 AM 56.8°F13.8°C 46.0°F7.8°C 67% 3.0 mph N4.8 kmh N 4.9 mph7.9 kmh 25.13 in851.0 mb 0.00 in0.0 mm 0.00 in0.0 mm 0.00 in0.0 mm
07:32 AM 56.8°F13.8°C 44.4°F6.9°C 63% 3.0 mph N4.8 kmh N 4.9 mph7.9 kmh 25.13 in851.0 mb 0.00 in0.0 mm 0.00 in0.0 mm 0.00 in0.0 mm
07:37 AM 57.6°F14.2°C 44.6°F7.0°C 62% 2.0 mph N3.2 kmh N 4.5 mph7.2 kmh 25.13 in851.0 mb 0.00 in0.0 mm 0.00 in0.0 mm 0.00 in0.0 mm
07:42 AM 57.2°F14.0°C 43.5°F6.4°C 60% 3.0 mph NNE4.8 kmh NNE 6.9 mph11.1 kmh 25.13 in851.0 mb 0.00 in0.0 mm 0.00 in0.0 mm 0.00 in0.0 mm
07:47 AM 57.9°F14.4°C 43.2°F6.2°C 58% 3.0 mph N4.8 kmh N 6.7 mph10.8 kmh 25.13 in851.0 mb 0.00 in0.0 mm 0.00 in0.0 mm 0.00 in0.0 mm
07:52 AM 57.6°F14.2°C 43.0°F6.1°C 58% 4.0 mph NNW6.4 kmh NNW 6.3 mph10.1 kmh 25.13 in851.0 mb 0.00 in0.0 mm 0.00 in0.0 mm 0.00 in0.0 mm
07:57 AM 57.9°F14.4°C 43.2°F6.2°C 58% 4.0 mph N6.4 kmh N 7.8 mph12.6 kmh 25.13 in851.0 mb 0.00 in0.0 mm 0.00 in0.0 mm 0.00 in0.0 mm
08:02 AM 57.9°F14.4°C 42.8°F6.0°C 57% 4.0 mph 6.4 kmh 7.8 mph12.6 kmh 25.13 in851.0 mb 0.00 in0.0 mm 0.00 in0.0 mm 0.00 in0.0 mm
08:07 AM 58.1°F14.5°C 42.4°F5.8°C 56% 4.0 mph N6.4 kmh N 6.9 mph11.1 kmh 25.13 in851.0 mb 0.00 in0.0 mm 0.00 in0.0 mm 0.00 in0.0 mm
08:12 AM 58.3°F14.6°C 42.6°F5.9°C 56% 4.0 mph N6.4 kmh N 7.4 mph11.9 kmh 25.13 in851.0 mb 0.00 in0.0 mm 0.00 in0.0 mm 0.00 in0.0 mm
08:17 AM 57.7°F14.3°C 41.2°F5.1°C 54% 5.0 mph N8.0 kmh N 6.9 mph11.1 kmh 25.13 in851.0 mb 0.00 in0.0 mm 0.00 in0.0 mm 0.00 in0.0 mm
08:22 AM 58.1°F14.5°C 42.1°F5.6°C 55% 5.0 mph NNE8.0 kmh NNE 6.9 mph11.1 kmh 25.13 in851.0 mb 0.00 in0.0 mm 0.00 in0.0 mm 0.00 in0.0 mm
08:27 AM 58.1°F14.5°C 41.0°F5.0°C 53% 5.0 mph N8.0 kmh N 6.9 mph11.1 kmh 25.13 in851.0 mb 0.00 in0.0 mm 0.00 in0.0 mm 0.00 in0.0 mm
08:32 AM 59.2°F15.1°C 42.6°F5.9°C 54% 5.0 mph NNW8.0 kmh NNW 6.9 mph11.1 kmh 25.13 in851.0 mb 0.00 in0.0 mm 0.00 in0.0 mm 0.00 in0.0 mm
08:37 AM 58.5°F14.7°C 40.5°F4.7°C 51% 5.0 mph N8.0 kmh N 8.7 mph14.0 kmh 25.13 in851.0 mb 0.00 in0.0 mm 0.00 in0.0 mm 0.00 in0.0 mm
08:42 AM 58.6°F14.8°C 40.6°F4.8°C 51% 6.0 mph N9.7 kmh N 9.2 mph14.8 kmh 25.13 in851.0 mb 0.00 in0.0 mm 0.00 in0.0 mm 0.00 in0.0 mm
08:47 AM 58.8°F14.9°C 39.2°F4.0°C 48% 6.0 mph N9.7 kmh N 6.9 mph11.1 kmh 25.13 in851.0 mb 0.00 in0.0 mm 0.00 in0.0 mm 0.00 in0.0 mm
08:52 AM 59.4°F15.2°C 40.3°F4.6°C 49% 5.0 mph N8.0 kmh N 7.4 mph11.9 kmh 25.13 in851.0 mb 0.00 in0.0 mm 0.00 in0.0 mm 0.00 in0.0 mm
08:57 AM 60.1°F15.6°C 40.8°F4.9°C 49% 4.0 mph N6.4 kmh N 6.7 mph10.8 kmh 25.13 in851.0 mb 0.00 in0.0 mm 0.00 in0.0 mm 0.00 in0.0 mm
09:02 AM 60.3°F15.7°C 41.5°F5.3°C 50% 5.0 mph N8.0 kmh N 8.3 mph13.4 kmh 25.13 in851.0 mb 0.00 in0.0 mm 0.00 in0.0 mm 0.00 in0.0 mm
09:07 AM 59.7°F15.4°C 40.5°F4.7°C 49% 5.0 mph N8.0 kmh N 9.6 mph15.4 kmh 25.13 in851.0 mb 0.00 in0.0 mm 0.00 in0.0 mm 0.00 in0.0 mm
09:12 AM 60.3°F15.7°C 41.0°F5.0°C 49% 5.0 mph N8.0 kmh N 7.4 mph11.9 kmh 25.13 in851.0 mb 0.00 in0.0 mm 0.00 in0.0 mm 0.00 in0.0 mm
09:17 AM 60.4°F15.8°C 40.6°F4.8°C 48% 5.0 mph NNW8.0 kmh NNW 7.4 mph11.9 kmh 25.13 in851.0 mb 0.00 in0.0 mm 0.00 in0.0 mm 0.00 in0.0 mm
09:22 AM 61.3°F16.3°C 42.1°F5.6°C 49% 5.0 mph NW8.0 kmh NW 7.8 mph12.6 kmh 25.13 in851.0 mb 0.00 in0.0 mm 0.00 in0.0 mm 0.00 in0.0 mm
09:27 AM 61.5°F16.4°C 41.7°F5.4°C 48% 5.0 mph NW8.0 kmh NW 7.4 mph11.9 kmh 25.13 in851.0 mb 0.00 in0.0 mm 0.00 in0.0 mm 0.00 in0.0 mm
09:32 AM 61.5°F16.4°C 41.7°F5.4°C 48% 5.0 mph NNW8.0 kmh NNW 8.3 mph13.4 kmh 25.13 in851.0 mb 0.00 in0.0 mm 0.00 in0.0 mm 0.00 in0.0 mm
09:37 AM 61.3°F16.3°C 41.0°F5.0°C 47% 5.0 mph NNW8.0 kmh NNW 8.3 mph13.4 kmh 25.13 in851.0 mb 0.00 in0.0 mm 0.00 in0.0 mm 0.00 in0.0 mm
09:42 AM 61.5°F16.4°C 41.2°F5.1°C 47% 5.0 mph NNW8.0 kmh NNW 9.2 mph14.8 kmh 25.13 in851.0 mb 0.00 in0.0 mm 0.00 in0.0 mm 0.00 in0.0 mm
09:47 AM 62.1°F16.7°C 41.0°F5.0°C 46% 5.0 mph NNW8.0 kmh NNW 7.4 mph11.9 kmh 25.13 in851.0 mb 0.00 in0.0 mm 0.00 in0.0 mm 0.00 in0.0 mm
09:52 AM 62.2°F16.8°C 41.7°F5.4°C 47% 6.0 mph NW9.7 kmh NW 8.3 mph13.4 kmh 25.13 in851.0 mb 0.00 in0.0 mm 0.00 in0.0 mm 0.00 in0.0 mm
09:57 AM 62.4°F16.9°C 40.8°F4.9°C 45% 6.0 mph NNW9.7 kmh NNW 8.7 mph14.0 kmh 25.13 in851.0 mb 0.00 in0.0 mm 0.00 in0.0 mm 0.00 in0.0 mm
10:02 AM 62.8°F17.1°C 40.5°F4.7°C 44% 5.0 mph NNW8.0 kmh NNW 6.9 mph11.1 kmh 25.13 in851.0 mb 0.00 in0.0 mm 0.00 in0.0 mm 0.00 in0.0 mm
10:07 AM 63.1°F17.3°C 40.8°F4.9°C 44% 4.0 mph NNW6.4 kmh NNW 6.7 mph10.8 kmh 25.13 in851.0 mb 0.00 in0.0 mm 0.00 in0.0 mm 0.00 in0.0 mm
10:12 AM 63.1°F17.3°C 40.3°F4.6°C 43% 5.0 mph NNW8.0 kmh NNW 7.8 mph12.6 kmh 25.13 in851.0 mb 0.00 in0.0 mm 0.00 in0.0 mm 0.00 in0.0 mm
10:17 AM 64.2°F17.9°C 41.9°F5.5°C 44% 4.0 mph N6.4 kmh N 6.7 mph10.8 kmh 25.13 in851.0 mb 0.00 in0.0 mm 0.00 in0.0 mm 0.00 in0.0 mm
10:22 AM 63.9°F17.7°C 39.7°F4.3°C 41% 4.0 mph NNW6.4 kmh NNW 7.8 mph12.6 kmh 25.13 in851.0 mb 0.00 in0.0 mm 0.00 in0.0 mm 0.00 in0.0 mm
10:27 AM 64.0°F17.8°C 39.2°F4.0°C 40% 4.0 mph NW6.4 kmh NW 6.7 mph10.8 kmh 25.13 in851.0 mb 0.00 in0.0 mm 0.00 in0.0 mm 0.00 in0.0 mm
10:32 AM 64.4°F18.0°C 36.9°F2.7°C 36% 4.0 mph NW6.4 kmh NW 7.4 mph11.9 kmh 25.13 in851.0 mb 0.00 in0.0 mm 0.00 in0.0 mm 0.00 in0.0 mm
10:37 AM 64.9°F18.3°C 37.4°F3.0°C 36% 2.0 mph N3.2 kmh N 4.9 mph7.9 kmh 25.13 in851.0 mb 0.00 in0.0 mm 0.00 in0.0 mm 0.00 in0.0 mm
10:43 AM 66.0°F18.9°C 38.3°F3.5°C 36% 2.0 mph NNE3.2 kmh NNE 5.8 mph9.3 kmh 25.13 in851.0 mb 0.00 in0.0 mm 0.00 in0.0 mm 0.00 in0.0 mm
10:48 AM 66.0°F18.9°C 38.3°F3.5°C 36% 4.0 mph N6.4 kmh N 6.7 mph10.8 kmh 25.13 in851.0 mb 0.00 in0.0 mm 0.00 in0.0 mm 0.00 in0.0 mm
10:53 AM 66.0°F18.9°C 37.6°F3.1°C 35% 4.0 mph NW6.4 kmh NW 7.8 mph12.6 kmh 25.13 in851.0 mb 0.00 in0.0 mm 0.00 in0.0 mm 0.00 in0.0 mm
10:58 AM 65.8°F18.8°C 38.8°F3.8°C 37% 4.0 mph W6.4 kmh W 6.7 mph10.8 kmh 25.13 in851.0 mb 0.00 in0.0 mm 0.00 in0.0 mm 0.00 in0.0 mm
11:03 AM 66.6°F19.2°C 39.6°F4.2°C 37% 4.0 mph W6.4 kmh W 7.4 mph11.9 kmh 25.13 in851.0 mb 0.00 in0.0 mm 0.00 in0.0 mm 0.00 in0.0 mm
11:08 AM 66.2°F19.0°C 37.8°F3.2°C 35% 4.0 mph NNW6.4 kmh NNW 7.8 mph12.6 kmh 25.13 in851.0 mb 0.00 in0.0 mm 0.00 in0.0 mm 0.00 in0.0 mm
11:13 AM 66.4°F19.1°C 37.9°F3.3°C 35% 4.0 mph NNE6.4 kmh NNE 6.3 mph10.1 kmh 25.13 in851.0 mb 0.00 in0.0 mm 0.00 in0.0 mm 0.00 in0.0 mm
11:18 AM 67.5°F19.7°C 38.1°F3.4°C 34% 3.0 mph NNE4.8 kmh NNE 6.3 mph10.1 kmh 25.13 in851.0 mb 0.00 in0.0 mm 0.00 in0.0 mm 0.00 in0.0 mm
11:23 AM 66.2°F19.0°C 37.0°F2.8°C 34% 4.0 mph NNE6.4 kmh NNE 7.8 mph12.6 kmh 25.13 in851.0 mb 0.00 in0.0 mm 0.00 in0.0 mm 0.00 in0.0 mm
11:28 AM 66.4°F19.1°C 37.2°F2.9°C 34% 5.0 mph NW8.0 kmh NW 7.8 mph12.6 kmh 25.13 in851.0 mb 0.00 in0.0 mm 0.00 in0.0 mm 0.00 in0.0 mm
11:33 AM 67.5°F19.7°C 38.8°F3.8°C 35% 4.0 mph WSW6.4 kmh WSW 7.8 mph12.6 kmh 25.13 in851.0 mb 0.00 in0.0 mm 0.00 in0.0 mm 0.00 in0.0 mm
11:38 AM 67.3°F19.6°C 36.3°F2.4°C 32% 5.0 mph SW8.0 kmh SW 10.1 mph16.3 kmh 25.13 in851.0 mb 0.00 in0.0 mm 0.00 in0.0 mm 0.00 in0.0 mm
11:43 AM 68.5°F20.3°C 37.6°F3.1°C 32% 6.0 mph SSW9.7 kmh SSW 9.6 mph15.4 kmh 25.13 in851.0 mb 0.00 in0.0 mm 0.00 in0.0 mm 0.00 in0.0 mm
11:48 AM 68.4°F20.2°C 37.4°F3.0°C 32% 5.0 mph S8.0 kmh S 7.8 mph12.6 kmh 25.13 in851.0 mb 0.00 in0.0 mm 0.00 in0.0 mm 0.00 in0.0 mm
11:53 AM 68.0°F20.0°C 37.0°F2.8°C 32% 5.0 mph SSW8.0 kmh SSW 10.1 mph16.3 kmh 25.10 in850.0 mb 0.00 in0.0 mm 0.00 in0.0 mm 0.00 in0.0 mm
11:58 AM 68.2°F20.1°C 37.2°F2.9°C 32% 5.0 mph SW8.0 kmh SW 6.7 mph10.8 kmh 25.10 in850.0 mb 0.00 in0.0 mm 0.00 in0.0 mm 0.00 in0.0 mm
12:03 PM 69.1°F20.6°C 37.9°F3.3°C 32% 4.0 mph WSW6.4 kmh WSW 7.8 mph12.6 kmh 25.10 in850.0 mb 0.00 in0.0 mm 0.00 in0.0 mm 0.00 in0.0 mm
12:08 PM 67.6°F19.8°C 35.1°F1.7°C 30% 5.0 mph WSW8.0 kmh WSW 9.2 mph14.8 kmh 25.10 in850.0 mb 0.00 in0.0 mm 0.00 in0.0 mm 0.00 in0.0 mm
12:13 PM 67.6°F19.8°C 35.1°F1.7°C 30% 6.0 mph WNW9.7 kmh WNW 7.8 mph12.6 kmh 25.10 in850.0 mb 0.00 in0.0 mm 0.00 in0.0 mm 0.00 in0.0 mm
12:18 PM 68.5°F20.3°C 36.7°F2.6°C 31% 5.0 mph NW8.0 kmh NW 7.8 mph12.6 kmh 25.10 in850.0 mb 0.00 in0.0 mm 0.00 in0.0 mm 0.00 in0.0 mm
12:23 PM 69.8°F21.0°C 38.7°F3.7°C 32% 5.0 mph NW8.0 kmh NW 7.8 mph12.6 kmh 25.10 in850.0 mb 0.00 in0.0 mm 0.00 in0.0 mm 0.00 in0.0 mm
12:28 PM 69.1°F20.6°C 34.5°F1.4°C 28% 5.0 mph WSW8.0 kmh WSW 8.3 mph13.4 kmh 25.10 in850.0 mb 0.00 in0.0 mm 0.00 in0.0 mm 0.00 in0.0 mm
12:33 PM 68.7°F20.4°C 35.2°F1.8°C 29% 6.0 mph SW9.7 kmh SW 9.2 mph14.8 kmh 25.10 in850.0 mb 0.00 in0.0 mm 0.00 in0.0 mm 0.00 in0.0 mm
12:38 PM 70.0°F21.1°C 34.5°F1.4°C 27% 4.0 mph WSW6.4 kmh WSW 6.3 mph10.1 kmh 25.10 in850.0 mb 0.00 in0.0 mm 0.00 in0.0 mm 0.00 in0.0 mm
12:43 PM 70.5°F21.4°C 34.0°F1.1°C 26% 2.0 mph N3.2 kmh N 5.4 mph8.7 kmh 25.10 in850.0 mb 0.00 in0.0 mm 0.00 in0.0 mm 0.00 in0.0 mm
12:48 PM 70.0°F21.1°C 34.5°F1.4°C 27% 4.0 mph N6.4 kmh N 11.0 mph17.7 kmh 25.10 in850.0 mb 0.00 in0.0 mm 0.00 in0.0 mm 0.00 in0.0 mm
12:53 PM 70.7°F21.5°C 34.2°F1.2°C 26% 6.0 mph WSW9.7 kmh WSW 9.2 mph14.8 kmh 25.07 in849.0 mb 0.00 in0.0 mm 0.00 in0.0 mm 0.00 in0.0 mm
12:58 PM 70.9°F21.6°C 33.3°F0.7°C 25% 6.0 mph SW9.7 kmh SW 10.1 mph16.3 kmh 25.07 in849.0 mb 0.00 in0.0 mm 0.00 in0.0 mm 0.00 in0.0 mm
01:03 PM 70.7°F21.5°C 32.2°F0.1°C 24% 6.0 mph SW9.7 kmh SW 7.8 mph12.6 kmh 25.07 in849.0 mb 0.00 in0.0 mm 0.00 in0.0 mm 0.00 in0.0 mm
01:08 PM 70.9°F21.6°C 32.4°F0.2°C 24% 5.0 mph SW8.0 kmh SW 11.2 mph18.0 kmh 25.07 in849.0 mb 0.00 in0.0 mm 0.00 in0.0 mm 0.00 in0.0 mm
01:13 PM 71.4°F21.9°C 31.6°F-0.2°C 23% 6.0 mph SW9.7 kmh SW 13.0 mph20.9 kmh 25.07 in849.0 mb 0.00 in0.0 mm 0.00 in0.0 mm 0.00 in0.0 mm
01:18 PM 71.1°F21.7°C 31.5°F-0.3°C 23% 6.0 mph S9.7 kmh S 11.0 mph17.7 kmh 25.07 in849.0 mb 0.00 in0.0 mm 0.00 in0.0 mm 0.00 in0.0 mm
01:23 PM 70.7°F21.5°C 31.1°F-0.5°C 23% 6.0 mph SSE9.7 kmh SSE 11.0 mph17.7 kmh 25.07 in849.0 mb 0.00 in0.0 mm 0.00 in0.0 mm 0.00 in0.0 mm
01:28 PM 71.4°F21.9°C 31.6°F-0.2°C 23% 7.0 mph SSE11.3 kmh SSE 11.0 mph17.7 kmh 25.07 in849.0 mb 0.00 in0.0 mm 0.00 in0.0 mm 0.00 in0.0 mm
01:33 PM 71.8°F22.1°C 32.0°F0.0°C 23% 6.0 mph SSE9.7 kmh SSE 9.2 mph14.8 kmh 25.07 in849.0 mb 0.00 in0.0 mm 0.00 in0.0 mm 0.00 in0.0 mm
01:38 PM 71.8°F22.1°C 30.9°F-0.6°C 22% 5.0 mph S8.0 kmh S 11.0 mph17.7 kmh 25.07 in849.0 mb 0.00 in0.0 mm 0.00 in0.0 mm 0.00 in0.0 mm
01:43 PM 72.1°F22.3°C 32.4°F0.2°C 23% 6.0 mph S9.7 kmh S 11.6 mph18.7 kmh 25.07 in849.0 mb 0.00 in0.0 mm 0.00 in0.0 mm 0.00 in0.0 mm
01:48 PM 70.5°F21.4°C 32.0°F0.0°C 24% 8.0 mph S12.9 kmh S 13.4 mph21.6 kmh 25.07 in849.0 mb 0.00 in0.0 mm 0.00 in0.0 mm 0.00 in0.0 mm
01:53 PM 71.4°F21.9°C 31.6°F-0.2°C 23% 8.0 mph S12.9 kmh S 13.0 mph20.9 kmh 25.07 in849.0 mb 0.00 in0.0 mm 0.00 in0.0 mm 0.00 in0.0 mm
01:58 PM 71.4°F21.9°C 32.7°F0.4°C 24% 8.0 mph S12.9 kmh S 13.0 mph20.9 kmh 25.07 in849.0 mb 0.00 in0.0 mm 0.00 in0.0 mm 0.00 in0.0 mm
02:03 PM 71.4°F21.9°C 31.6°F-0.2°C 23% 7.0 mph S11.3 kmh S 9.6 mph15.4 kmh 25.07 in849.0 mb 0.00 in0.0 mm 0.00 in0.0 mm 0.00 in0.0 mm
02:08 PM 70.9°F21.6°C 31.3°F-0.4°C 23% 5.0 mph SW8.0 kmh SW 8.3 mph13.4 kmh 25.07 in849.0 mb 0.00 in0.0 mm 0.00 in0.0 mm 0.00 in0.0 mm
02:13 PM 72.0°F22.2°C 32.2°F0.1°C 23% 5.0 mph SW8.0 kmh SW 11.2 mph18.0 kmh 25.07 in849.0 mb 0.00 in0.0 mm 0.00 in0.0 mm 0.00 in0.0 mm
02:18 PM 72.1°F22.3°C 32.4°F0.2°C 23% 6.0 mph S9.7 kmh S 9.2 mph14.8 kmh 25.07 in849.0 mb 0.00 in0.0 mm 0.00 in0.0 mm 0.00 in0.0 mm
02:23 PM 71.2°F21.8°C 30.4°F-0.9°C 22% 6.0 mph S9.7 kmh S 11.2 mph18.0 kmh 25.04 in848.0 mb 0.00 in0.0 mm 0.00 in0.0 mm 0.00 in0.0 mm
02:28 PM 71.6°F22.0°C 30.7°F-0.7°C 22% 6.0 mph SW9.7 kmh SW 9.6 mph15.4 kmh 25.04 in848.0 mb 0.00 in0.0 mm 0.00 in0.0 mm 0.00 in0.0 mm
02:33 PM 71.4°F21.9°C 30.6°F-0.8°C 22% 5.0 mph WSW8.0 kmh WSW 8.3 mph13.4 kmh 25.04 in848.0 mb 0.00 in0.0 mm 0.00 in0.0 mm 0.00 in0.0 mm
02:38 PM 72.7°F22.6°C 30.6°F-0.8°C 21% 6.0 mph SW9.7 kmh SW 11.0 mph17.7 kmh 25.04 in848.0 mb 0.00 in0.0 mm 0.00 in0.0 mm 0.00 in0.0 mm
02:43 PM 73.0°F22.8°C 30.7°F-0.7°C 21% 7.0 mph SSW11.3 kmh SSW 11.0 mph17.7 kmh 25.04 in848.0 mb 0.00 in0.0 mm 0.00 in0.0 mm 0.00 in0.0 mm
02:48 PM 72.9°F22.7°C 27.0°F-2.8°C 18% 8.0 mph S12.9 kmh S 13.4 mph21.6 kmh 25.04 in848.0 mb 0.00 in0.0 mm 0.00 in0.0 mm 0.00 in0.0 mm
02:53 PM 72.7°F22.6°C 30.6°F-0.8°C 21% 9.0 mph S14.5 kmh S 16.8 mph27.0 kmh 25.07 in849.0 mb 0.00 in0.0 mm 0.00 in0.0 mm 0.00 in0.0 mm
02:58 PM 64.4°F18.0°C 25.9°F-3.4°C 23% 18.0 mph S29.0 kmh S 41.2 mph66.3 kmh 25.07 in849.0 mb 0.00 in0.0 mm 0.00 in0.0 mm 0.00 in0.0 mm
03:03 PM 63.7°F17.6°C 27.1°F-2.7°C 25% 25.0 mph S40.2 kmh S 36.0 mph57.9 kmh 25.07 in849.0 mb 0.00 in0.0 mm 0.00 in0.0 mm 0.00 in0.0 mm
03:08 PM 62.8°F17.1°C 30.0°F-1.1°C 29% 24.0 mph S38.6 kmh S 33.3 mph53.6 kmh 25.10 in850.0 mb 0.00 in0.0 mm 0.00 in0.0 mm 0.00 in0.0 mm
03:13 PM 63.0°F17.2°C 34.2°F1.2°C 34% 22.0 mph S35.4 kmh S 29.1 mph46.8 kmh 25.10 in850.0 mb 0.00 in0.0 mm 0.00 in0.0 mm 0.00 in0.0 mm
03:18 PM 62.6°F17.0°C 34.5°F1.4°C 35% 19.0 mph S30.6 kmh S 28.6 mph46.0 kmh 25.10 in850.0 mb 0.00 in0.0 mm 0.00 in0.0 mm 0.00 in0.0 mm
03:23 PM 62.1°F16.7°C 34.2°F1.2°C 35% 16.0 mph S25.7 kmh S 26.6 mph42.8 kmh 25.10 in850.0 mb 0.00 in0.0 mm 0.00 in0.0 mm 0.00 in0.0 mm
03:28 PM 62.1°F16.7°C 35.4°F1.9°C 37% 16.0 mph S25.7 kmh S 22.4 mph36.0 kmh 25.10 in850.0 mb 0.00 in0.0 mm 0.00 in0.0 mm 0.00 in0.0 mm
03:33 PM 62.4°F16.9°C 35.1°F1.7°C 36% 15.0 mph S24.1 kmh S 21.5 mph34.6 kmh 25.10 in850.0 mb 0.00 in0.0 mm 0.00 in0.0 mm 0.00 in0.0 mm
03:38 PM 62.8°F17.1°C 36.1°F2.3°C 37% 14.0 mph S22.5 kmh S 19.5 mph31.4 kmh 25.13 in851.0 mb 0.00 in0.0 mm 0.00 in0.0 mm 0.00 in0.0 mm
03:43 PM 62.8°F17.1°C 35.4°F1.9°C 36% 13.0 mph S20.9 kmh S 17.7 mph28.5 kmh 25.13 in851.0 mb 0.00 in0.0 mm 0.00 in0.0 mm 0.00 in0.0 mm
03:48 PM 63.0°F17.2°C 34.9°F1.6°C 35% 11.0 mph S17.7 kmh S 14.3 mph23.0 kmh 25.13 in851.0 mb 0.00 in0.0 mm 0.00 in0.0 mm 0.00 in0.0 mm
03:53 PM 63.5°F17.5°C 35.4°F1.9°C 35% 10.0 mph S16.1 kmh S 16.8 mph27.0 kmh 25.13 in851.0 mb 0.00 in0.0 mm 0.00 in0.0 mm 0.00 in0.0 mm
03:58 PM 63.5°F17.5°C 34.7°F1.5°C 34% 9.0 mph SSE14.5 kmh SSE 13.9 mph22.4 kmh 25.13 in851.0 mb 0.00 in0.0 mm 0.00 in0.0 mm 0.00 in0.0 mm
04:03 PM 63.7°F17.6°C 34.0°F1.1°C 33% 10.0 mph SSE16.1 kmh SSE 19.0 mph30.6 kmh 25.13 in851.0 mb 0.00 in0.0 mm 0.00 in0.0 mm 0.00 in0.0 mm
04:08 PM 62.6°F17.0°C 33.8°F1.0°C 34% 10.0 mph S16.1 kmh S 15.4 mph24.8 kmh 25.13 in851.0 mb 0.00 in0.0 mm 0.00 in0.0 mm 0.00 in0.0 mm
04:13 PM 63.1°F17.3°C 34.3°F1.3°C 34% 9.0 mph S14.5 kmh S 14.3 mph23.0 kmh 25.13 in851.0 mb 0.00 in0.0 mm 0.00 in0.0 mm 0.00 in0.0 mm
04:18 PM 63.1°F17.3°C 34.3°F1.3°C 34% 8.0 mph SSE12.9 kmh SSE 13.9 mph22.4 kmh 25.13 in851.0 mb 0.00 in0.0 mm 0.00 in0.0 mm 0.00 in0.0 mm
04:23 PM 63.5°F17.5°C 34.7°F1.5°C 34% 8.0 mph SSE12.9 kmh SSE 11.6 mph18.7 kmh 25.13 in851.0 mb 0.00 in0.0 mm 0.00 in0.0 mm 0.00 in0.0 mm
04:28 PM 62.8°F17.1°C 33.3°F0.7°C 33% 8.0 mph SSE12.9 kmh SSE 14.3 mph23.0 kmh 25.13 in851.0 mb 0.00 in0.0 mm 0.00 in0.0 mm 0.00 in0.0 mm
04:33 PM 63.7°F17.6°C 31.6°F-0.2°C 30% 8.0 mph SSE12.9 kmh SSE 12.1 mph19.5 kmh 25.13 in851.0 mb 0.00 in0.0 mm 0.00 in0.0 mm 0.00 in0.0 mm
04:38 PM 63.7°F17.6°C 29.1°F-1.6°C 27% 7.0 mph SE11.3 kmh SE 11.2 mph18.0 kmh 25.13 in851.0 mb 0.00 in0.0 mm 0.00 in0.0 mm 0.00 in0.0 mm
04:43 PM 63.5°F17.5°C 27.1°F-2.7°C 25% 8.0 mph ESE12.9 kmh ESE 15.9 mph25.6 kmh 25.13 in851.0 mb 0.00 in0.0 mm 0.00 in0.0 mm 0.00 in0.0 mm
04:48 PM 63.5°F17.5°C 28.0°F-2.2°C 26% 8.0 mph ESE12.9 kmh ESE 13.0 mph20.9 kmh 25.13 in851.0 mb 0.00 in0.0 mm 0.00 in0.0 mm 0.00 in0.0 mm
04:53 PM 63.5°F17.5°C 28.0°F-2.2°C 26% 8.0 mph ESE12.9 kmh ESE 12.1 mph19.5 kmh 25.16 in852.0 mb 0.00 in0.0 mm 0.00 in0.0 mm 0.00 in0.0 mm
04:58 PM 63.3°F17.4°C 30.6°F-0.8°C 29% 7.0 mph ESE11.3 kmh ESE 9.6 mph15.4 kmh 25.16 in852.0 mb 0.00 in0.0 mm 0.00 in0.0 mm 0.00 in0.0 mm
05:03 PM 63.1°F17.3°C 32.0°F0.0°C 31% 6.0 mph E9.7 kmh E 10.5 mph16.9 kmh 25.16 in852.0 mb 0.00 in0.0 mm 0.00 in0.0 mm 0.00 in0.0 mm
05:08 PM 62.8°F17.1°C 31.6°F-0.2°C 31% 7.0 mph E11.3 kmh E 11.2 mph18.0 kmh 25.13 in851.0 mb 0.00 in0.0 mm 0.00 in0.0 mm 0.00 in0.0 mm
05:13 PM 62.4°F16.9°C 33.6°F0.9°C 34% 8.0 mph E12.9 kmh E 12.5 mph20.1 kmh 25.13 in851.0 mb 0.00 in0.0 mm 0.00 in0.0 mm 0.00 in0.0 mm
05:18 PM 61.9°F16.6°C 33.3°F0.7°C 34% 8.0 mph E12.9 kmh E 14.3 mph23.0 kmh 25.13 in851.0 mb 0.00 in0.0 mm 0.00 in0.0 mm 0.00 in0.0 mm
05:23 PM 61.9°F16.6°C 33.3°F0.7°C 34% 8.0 mph ESE12.9 kmh ESE 14.8 mph23.8 kmh 25.16 in852.0 mb 0.00 in0.0 mm 0.00 in0.0 mm 0.00 in0.0 mm
05:28 PM 61.5°F16.4°C 33.6°F0.9°C 35% 8.0 mph SE12.9 kmh SE 15.4 mph24.8 kmh 25.16 in852.0 mb 0.00 in0.0 mm 0.00 in0.0 mm 0.00 in0.0 mm
05:33 PM 61.5°F16.4°C 32.9°F0.5°C 34% 9.0 mph ESE14.5 kmh ESE 18.6 mph29.9 kmh 25.16 in852.0 mb 0.00 in0.0 mm 0.00 in0.0 mm 0.00 in0.0 mm
05:38 PM 62.1°F16.7°C 32.5°F0.3°C 33% 11.0 mph E17.7 kmh E 19.0 mph30.6 kmh 25.13 in851.0 mb 0.00 in0.0 mm 0.00 in0.0 mm 0.00 in0.0 mm
05:43 PM 62.1°F16.7°C 33.4°F0.8°C 34% 12.0 mph E19.3 kmh E 18.1 mph29.1 kmh 25.13 in851.0 mb 0.00 in0.0 mm 0.00 in0.0 mm 0.00 in0.0 mm
05:48 PM 62.1°F16.7°C 32.5°F0.3°C 33% 10.0 mph ENE16.1 kmh ENE 18.1 mph29.1 kmh 25.13 in851.0 mb 0.00 in0.0 mm 0.00 in0.0 mm 0.00 in0.0 mm
05:53 PM 62.8°F17.1°C 34.0°F1.1°C 34% 10.0 mph ENE16.1 kmh ENE 18.1 mph29.1 kmh 25.10 in850.0 mb 0.00 in0.0 mm 0.00 in0.0 mm 0.00 in0.0 mm
05:58 PM 63.7°F17.6°C 34.0°F1.1°C 33% 10.0 mph ENE16.1 kmh ENE 19.5 mph31.4 kmh 25.10 in850.0 mb 0.00 in0.0 mm 0.00 in0.0 mm 0.00 in0.0 mm
06:03 PM 64.8°F18.2°C 33.4°F0.8°C 31% 8.0 mph ENE12.9 kmh ENE 13.9 mph22.4 kmh 25.10 in850.0 mb 0.00 in0.0 mm 0.00 in0.0 mm 0.00 in0.0 mm
06:08 PM 66.0°F18.9°C 33.6°F0.9°C 30% 4.0 mph NE6.4 kmh NE 6.7 mph10.8 kmh 25.10 in850.0 mb 0.00 in0.0 mm 0.00 in0.0 mm 0.00 in0.0 mm
06:13 PM 66.4°F19.1°C 32.4°F0.2°C 28% 4.0 mph ENE6.4 kmh ENE 8.3 mph13.4 kmh 25.10 in850.0 mb 0.00 in0.0 mm 0.00 in0.0 mm 0.00 in0.0 mm
06:18 PM 66.6°F19.2°C 31.5°F-0.3°C 27% 3.0 mph E4.8 kmh E 4.9 mph7.9 kmh 25.10 in850.0 mb 0.00 in0.0 mm 0.00 in0.0 mm 0.00 in0.0 mm
06:24 PM 66.4°F19.1°C 30.4°F-0.9°C 26% 3.0 mph ENE4.8 kmh ENE 8.3 mph13.4 kmh 25.10 in850.0 mb 0.00 in0.0 mm 0.00 in0.0 mm 0.00 in0.0 mm
06:29 PM 66.2°F19.0°C 29.3°F-1.5°C 25% 4.0 mph NE6.4 kmh NE 6.9 mph11.1 kmh 25.10 in850.0 mb 0.00 in0.0 mm 0.00 in0.0 mm 0.00 in0.0 mm
06:34 PM 66.2°F19.0°C 28.4°F-2.0°C 24% 3.0 mph NE4.8 kmh NE 5.8 mph9.3 kmh 25.10 in850.0 mb 0.00 in0.0 mm 0.00 in0.0 mm 0.00 in0.0 mm
06:39 PM 66.0°F18.9°C 28.2°F-2.1°C 24% 4.0 mph N6.4 kmh N 7.4 mph11.9 kmh 25.10 in850.0 mb 0.00 in0.0 mm 0.00 in0.0 mm 0.00 in0.0 mm
06:44 PM 66.4°F19.1°C 28.6°F-1.9°C 24% 6.0 mph W9.7 kmh W 11.0 mph17.7 kmh 25.10 in850.0 mb 0.00 in0.0 mm 0.00 in0.0 mm 0.00 in0.0 mm
06:49 PM 66.0°F18.9°C 28.2°F-2.1°C 24% 6.0 mph WSW9.7 kmh WSW 8.7 mph14.0 kmh 25.10 in850.0 mb 0.00 in0.0 mm 0.00 in0.0 mm 0.00 in0.0 mm
06:54 PM 66.2°F19.0°C 29.3°F-1.5°C 25% 6.0 mph WSW9.7 kmh WSW 9.2 mph14.8 kmh 25.10 in850.0 mb 0.00 in0.0 mm 0.00 in0.0 mm 0.00 in0.0 mm
06:59 PM 65.7°F18.7°C 28.9°F-1.7°C 25% 7.0 mph WSW11.3 kmh WSW 10.5 mph16.9 kmh 25.10 in850.0 mb 0.00 in0.0 mm 0.00 in0.0 mm 0.00 in0.0 mm
07:04 PM 65.7°F18.7°C 28.9°F-1.7°C 25% 7.0 mph WSW11.3 kmh WSW 9.6 mph15.4 kmh 25.10 in850.0 mb 0.00 in0.0 mm 0.00 in0.0 mm 0.00 in0.0 mm
07:09 PM 65.7°F18.7°C 28.9°F-1.7°C 25% 6.0 mph WSW9.7 kmh WSW 10.1 mph16.3 kmh 25.10 in850.0 mb 0.00 in0.0 mm 0.00 in0.0 mm 0.00 in0.0 mm
07:14 PM 64.9°F18.3°C 29.3°F-1.5°C 26% 7.0 mph WSW11.3 kmh WSW 10.5 mph16.9 kmh 25.10 in850.0 mb 0.00 in0.0 mm 0.00 in0.0 mm 0.00 in0.0 mm
07:19 PM 64.9°F18.3°C 29.3°F-1.5°C 26% 7.0 mph W11.3 kmh W 8.3 mph13.4 kmh 25.10 in850.0 mb 0.00 in0.0 mm 0.00 in0.0 mm 0.00 in0.0 mm
07:24 PM 64.6°F18.1°C 28.9°F-1.7°C 26% 6.0 mph WSW9.7 kmh WSW 8.3 mph13.4 kmh 25.10 in850.0 mb 0.00 in0.0 mm 0.00 in0.0 mm 0.00 in0.0 mm
07:29 PM 64.8°F18.2°C 29.1°F-1.6°C 26% 4.0 mph W6.4 kmh W 5.8 mph9.3 kmh 25.10 in850.0 mb 0.00 in0.0 mm 0.00 in0.0 mm 0.00 in0.0 mm
07:34 PM 64.6°F18.1°C 29.8°F-1.2°C 27% 3.0 mph WNW4.8 kmh WNW 6.3 mph10.1 kmh 25.10 in850.0 mb 0.00 in0.0 mm 0.00 in0.0 mm 0.00 in0.0 mm
07:39 PM 64.4°F18.0°C 29.7°F-1.3°C 27% 3.0 mph NW4.8 kmh NW 6.3 mph10.1 kmh 25.10 in850.0 mb 0.00 in0.0 mm 0.00 in0.0 mm 0.00 in0.0 mm
07:44 PM 64.0°F17.8°C 30.2°F-1.0°C 28% 4.0 mph NNW6.4 kmh NNW 7.8 mph12.6 kmh 25.10 in850.0 mb 0.00 in0.0 mm 0.00 in0.0 mm 0.00 in0.0 mm
07:49 PM 63.7°F17.6°C 30.0°F-1.1°C 28% 5.0 mph N8.0 kmh N 7.4 mph11.9 kmh 25.10 in850.0 mb 0.00 in0.0 mm 0.00 in0.0 mm 0.00 in0.0 mm
07:54 PM 63.5°F17.5°C 29.8°F-1.2°C 28% 6.0 mph N9.7 kmh N 9.2 mph14.8 kmh 25.10 in850.0 mb 0.00 in0.0 mm 0.00 in0.0 mm 0.00 in0.0 mm
07:59 PM 63.1°F17.3°C 31.3°F-0.4°C 30% 6.0 mph 9.7 kmh 8.3 mph13.4 kmh 25.10 in850.0 mb 0.00 in0.0 mm 0.00 in0.0 mm 0.00 in0.0 mm
08:04 PM 63.1°F17.3°C 31.3°F-0.4°C 30% 4.0 mph 6.4 kmh 6.7 mph10.8 kmh 25.10 in850.0 mb 0.00 in0.0 mm 0.00 in0.0 mm 0.00 in0.0 mm
08:09 PM 62.8°F17.1°C 30.9°F-0.6°C 30% 4.0 mph NNW6.4 kmh NNW 6.3 mph10.1 kmh 25.13 in851.0 mb 0.00 in0.0 mm 0.00 in0.0 mm 0.00 in0.0 mm
08:14 PM 62.8°F17.1°C 30.9°F-0.6°C 30% 4.0 mph NW6.4 kmh NW 6.9 mph11.1 kmh 25.13 in851.0 mb 0.00 in0.0 mm 0.00 in0.0 mm 0.00 in0.0 mm
08:19 PM 62.4°F16.9°C 30.6°F-0.8°C 30% 5.0 mph NW8.0 kmh NW 6.9 mph11.1 kmh 25.13 in851.0 mb 0.00 in0.0 mm 0.00 in0.0 mm 0.00 in0.0 mm
08:24 PM 62.2°F16.8°C 30.4°F-0.9°C 30% 5.0 mph NNW8.0 kmh NNW 8.7 mph14.0 kmh 25.13 in851.0 mb 0.00 in0.0 mm 0.00 in0.0 mm 0.00 in0.0 mm
08:29 PM 62.1°F16.7°C 30.2°F-1.0°C 30% 5.0 mph N8.0 kmh N 7.8 mph12.6 kmh 25.13 in851.0 mb 0.00 in0.0 mm 0.00 in0.0 mm 0.00 in0.0 mm
08:34 PM 62.2°F16.8°C 29.7°F-1.3°C 29% 5.0 mph NNW8.0 kmh NNW 8.3 mph13.4 kmh 25.13 in851.0 mb 0.00 in0.0 mm 0.00 in0.0 mm 0.00 in0.0 mm
08:39 PM 62.2°F16.8°C 30.4°F-0.9°C 30% 6.0 mph NNW9.7 kmh NNW 8.3 mph13.4 kmh 25.13 in851.0 mb 0.00 in0.0 mm 0.00 in0.0 mm 0.00 in0.0 mm
08:44 PM 61.9°F16.6°C 30.0°F-1.1°C 30% 5.0 mph N8.0 kmh N 6.9 mph11.1 kmh 25.13 in851.0 mb 0.00 in0.0 mm 0.00 in0.0 mm 0.00 in0.0 mm
08:49 PM 61.9°F16.6°C 31.6°F-0.2°C 32% 3.0 mph N4.8 kmh N 4.9 mph7.9 kmh 25.13 in851.0 mb 0.00 in0.0 mm 0.00 in0.0 mm 0.00 in0.0 mm
08:54 PM 61.3°F16.3°C 32.7°F0.4°C 34% 2.0 mph N3.2 kmh N 4.0 mph6.4 kmh 25.13 in851.0 mb 0.00 in0.0 mm 0.00 in0.0 mm 0.00 in0.0 mm
08:59 PM 61.0°F16.1°C 32.4°F0.2°C 34% 1.0 mph N1.6 kmh N 2.7 mph4.3 kmh 25.13 in851.0 mb 0.00 in0.0 mm 0.00 in0.0 mm 0.00 in0.0 mm
09:04 PM 59.9°F15.5°C 34.2°F1.2°C 38% 1.0 mph N1.6 kmh N 6.3 mph10.1 kmh 25.13 in851.0 mb 0.00 in0.0 mm 0.00 in0.0 mm 0.00 in0.0 mm
09:09 PM 59.9°F15.5°C 34.9°F1.6°C 39% 4.0 mph SSE6.4 kmh SSE 11.2 mph18.0 kmh 25.13 in851.0 mb 0.00 in0.0 mm 0.00 in0.0 mm 0.00 in0.0 mm
09:14 PM 60.8°F16.0°C 33.6°F0.9°C 36% 7.0 mph SSW11.3 kmh SSW 11.2 mph18.0 kmh 25.13 in851.0 mb 0.00 in0.0 mm 0.00 in0.0 mm 0.00 in0.0 mm
09:19 PM 60.4°F15.8°C 34.0°F1.1°C 37% 6.0 mph SW9.7 kmh SW 6.9 mph11.1 kmh 25.13 in851.0 mb 0.00 in0.0 mm 0.00 in0.0 mm 0.00 in0.0 mm
09:24 PM 60.1°F15.6°C 33.8°F1.0°C 37% 6.0 mph SW9.7 kmh SW 8.3 mph13.4 kmh 25.16 in852.0 mb 0.00 in0.0 mm 0.00 in0.0 mm 0.00 in0.0 mm
09:29 PM 59.9°F15.5°C 33.6°F0.9°C 37% 5.0 mph SW8.0 kmh SW 6.7 mph10.8 kmh 25.16 in852.0 mb 0.00 in0.0 mm 0.00 in0.0 mm 0.00 in0.0 mm
09:34 PM 59.4°F15.2°C 35.1°F1.7°C 40% 5.0 mph SW8.0 kmh SW 7.4 mph11.9 kmh 25.16 in852.0 mb 0.00 in0.0 mm 0.00 in0.0 mm 0.00 in0.0 mm
09:39 PM 58.6°F14.8°C 36.9°F2.7°C 44% 6.0 mph SW9.7 kmh SW 10.1 mph16.3 kmh 25.16 in852.0 mb 0.00 in0.0 mm 0.00 in0.0 mm 0.00 in0.0 mm
09:44 PM 58.3°F14.6°C 37.0°F2.8°C 45% 5.0 mph SW8.0 kmh SW 7.4 mph11.9 kmh 25.16 in852.0 mb 0.00 in0.0 mm 0.00 in0.0 mm 0.00 in0.0 mm
09:49 PM 58.1°F14.5°C 36.9°F2.7°C 45% 3.0 mph SW4.8 kmh SW 4.0 mph6.4 kmh 25.16 in852.0 mb 0.00 in0.0 mm 0.00 in0.0 mm 0.00 in0.0 mm
09:54 PM 57.9°F14.4°C 37.2°F2.9°C 46% 1.0 mph SW1.6 kmh SW -- 25.16 in852.0 mb 0.00 in0.0 mm 0.00 in0.0 mm 0.00 in0.0 mm
09:59 PM 57.6°F14.2°C 36.9°F2.7°C 46% Calm Calm -- 25.16 in852.0 mb 0.00 in0.0 mm 0.00 in0.0 mm 0.00 in0.0 mm
10:04 PM 57.2°F14.0°C 37.2°F2.9°C 47% Calm Calm -- 25.16 in852.0 mb 0.00 in0.0 mm 0.00 in0.0 mm 0.00 in0.0 mm
10:09 PM 56.7°F13.7°C 36.7°F2.6°C 47% Calm Calm 4.0 mph6.4 kmh 25.16 in852.0 mb 0.00 in0.0 mm 0.00 in0.0 mm 0.00 in0.0 mm
10:14 PM 56.7°F13.7°C 36.7°F2.6°C 47% 2.0 mph SW3.2 kmh SW 4.5 mph7.2 kmh 25.16 in852.0 mb 0.00 in0.0 mm 0.00 in0.0 mm 0.00 in0.0 mm
10:19 PM 56.7°F13.7°C 37.2°F2.9°C 48% 3.0 mph SW4.8 kmh SW 4.5 mph7.2 kmh 25.16 in852.0 mb 0.00 in0.0 mm 0.00 in0.0 mm 0.00 in0.0 mm
10:24 PM 56.5°F13.6°C 37.0°F2.8°C 48% 3.0 mph WSW4.8 kmh WSW 5.4 mph8.7 kmh 25.16 in852.0 mb 0.00 in0.0 mm 0.00 in0.0 mm 0.00 in0.0 mm
10:29 PM 56.7°F13.7°C 37.2°F2.9°C 48% 3.0 mph NW4.8 kmh NW 4.5 mph7.2 kmh 25.16 in852.0 mb 0.00 in0.0 mm 0.00 in0.0 mm 0.00 in0.0 mm
10:34 PM 56.7°F13.7°C 36.7°F2.6°C 47% 4.0 mph NNW6.4 kmh NNW 6.3 mph10.1 kmh 25.16 in852.0 mb 0.00 in0.0 mm 0.00 in0.0 mm 0.00 in0.0 mm
10:39 PM 56.5°F13.6°C 36.5°F2.5°C 47% 4.0 mph N6.4 kmh N 6.3 mph10.1 kmh 25.16 in852.0 mb 0.00 in0.0 mm 0.00 in0.0 mm 0.00 in0.0 mm
10:44 PM 56.3°F13.5°C 36.9°F2.7°C 48% 3.0 mph NNE4.8 kmh NNE 4.5 mph7.2 kmh 25.16 in852.0 mb 0.00 in0.0 mm 0.00 in0.0 mm 0.00 in0.0 mm
10:49 PM 56.1°F13.4°C 36.7°F2.6°C 48% 1.0 mph NNE1.6 kmh NNE -- 25.16 in852.0 mb 0.00 in0.0 mm 0.00 in0.0 mm 0.00 in0.0 mm
10:54 PM 56.3°F13.5°C 36.9°F2.7°C 48% Calm Calm 4.5 mph7.2 kmh 25.16 in852.0 mb 0.00 in0.0 mm 0.00 in0.0 mm 0.00 in0.0 mm
10:59 PM 56.8°F13.8°C 36.9°F2.7°C 47% 2.0 mph NNE3.2 kmh NNE 6.3 mph10.1 kmh 25.16 in852.0 mb 0.00 in0.0 mm 0.00 in0.0 mm 0.00 in0.0 mm
11:04 PM 57.2°F14.0°C 36.7°F2.6°C 46% 4.0 mph N6.4 kmh N 6.9 mph11.1 kmh 25.16 in852.0 mb 0.00 in0.0 mm 0.00 in0.0 mm 0.00 in0.0 mm
11:09 PM 56.8°F13.8°C 36.3°F2.4°C 46% 4.0 mph N6.4 kmh N 7.4 mph11.9 kmh 25.16 in852.0 mb 0.00 in0.0 mm 0.00 in0.0 mm 0.00 in0.0 mm
11:14 PM 56.7°F13.7°C 36.1°F2.3°C 46% 5.0 mph NNE8.0 kmh NNE 6.7 mph10.8 kmh 25.16 in852.0 mb 0.00 in0.0 mm 0.00 in0.0 mm 0.00 in0.0 mm
11:19 PM 56.3°F13.5°C 35.8°F2.1°C 46% 5.0 mph NNE8.0 kmh NNE 6.3 mph10.1 kmh 25.16 in852.0 mb 0.00 in0.0 mm 0.00 in0.0 mm 0.00 in0.0 mm
11:24 PM 56.1°F13.4°C 36.1°F2.3°C 47% 4.0 mph NNE6.4 kmh NNE 6.3 mph10.1 kmh 25.16 in852.0 mb 0.00 in0.0 mm 0.00 in0.0 mm 0.00 in0.0 mm
11:29 PM 56.1°F13.4°C 36.1°F2.3°C 47% 4.0 mph NNE6.4 kmh NNE 5.8 mph9.3 kmh 25.16 in852.0 mb 0.00 in0.0 mm 0.00 in0.0 mm 0.00 in0.0 mm
11:34 PM 56.8°F13.8°C 36.3°F2.4°C 46% 4.0 mph N6.4 kmh N 6.7 mph10.8 kmh 25.16 in852.0 mb 0.00 in0.0 mm 0.00 in0.0 mm 0.00 in0.0 mm
11:39 PM 56.1°F13.4°C 35.6°F2.0°C 46% 4.0 mph N6.4 kmh N 6.3 mph10.1 kmh 25.16 in852.0 mb 0.00 in0.0 mm 0.00 in0.0 mm 0.00 in0.0 mm
11:44 PM 55.4°F13.0°C 36.0°F2.2°C 48% 5.0 mph NNE8.0 kmh NNE 6.9 mph11.1 kmh 25.16 in852.0 mb 0.00 in0.0 mm 0.00 in0.0 mm 0.00 in0.0 mm
11:49 PM 54.9°F12.7°C 36.1°F2.3°C 49% 3.0 mph NE4.8 kmh NE 5.8 mph9.3 kmh 25.16 in852.0 mb 0.00 in0.0 mm 0.00 in0.0 mm 0.00 in0.0 mm
11:54 PM 55.0°F12.8°C 36.3°F2.4°C 49% 3.0 mph NE4.8 kmh NE 6.3 mph10.1 kmh 25.16 in852.0 mb 0.00 in0.0 mm 0.00 in0.0 mm 0.00 in0.0 mm
11:59 PM 54.9°F12.7°C 36.1°F2.3°C 49% 4.0 mph NNE6.4 kmh NNE 6.9 mph11.1 kmh 25.16 in852.0 mb 0.00 in0.0 mm 0.00 in0.0 mm 0.00 in0.0 mm